createdAt,value
2022-12-29T00:00:19.215Z,3.95
2022-12-29T00:02:46.433Z,3.78
2022-12-29T00:05:13.516Z,4.03
2022-12-29T00:07:40.793Z,3.91
2022-12-29T00:10:08.841Z,4.14
2022-12-29T00:12:54.339Z,4.28
2022-12-29T00:15:39.813Z,4.28
2022-12-29T00:18:08.336Z,4.47
2022-12-29T00:20:57.289Z,4.37
2022-12-29T00:23:43.518Z,4.17
2022-12-29T00:26:34.693Z,4.29
2022-12-29T00:29:20.188Z,4.26
2022-12-29T00:32:05.745Z,4.26
2022-12-29T00:34:51.295Z,4.14
2022-12-29T00:37:38.797Z,4.50
2022-12-29T00:40:24.911Z,4.04
2022-12-29T00:43:10.707Z,3.94
2022-12-29T00:45:37.610Z,3.96
2022-12-29T00:48:04.775Z,4.11
2022-12-29T00:50:32.064Z,4.15
2022-12-29T00:52:59.336Z,3.89
2022-12-29T00:55:26.227Z,3.81
2022-12-29T00:57:53.096Z,3.75
2022-12-29T01:00:20.291Z,3.64
2022-12-29T01:02:47.288Z,4.29
2022-12-29T01:05:14.329Z,4.20
2022-12-29T01:07:42.050Z,4.04
2022-12-29T01:10:12.284Z,4.03
2022-12-29T01:12:42.349Z,3.79
2022-12-29T01:15:12.183Z,3.79
2022-12-29T01:17:39.124Z,3.88
2022-12-29T01:20:07.413Z,4.00
2022-12-29T01:22:35.564Z,4.12
2022-12-29T01:25:07.834Z,4.01
2022-12-29T01:27:36.804Z,3.95
2022-12-29T01:30:04.457Z,3.70
2022-12-29T01:32:32.464Z,3.77
2022-12-29T01:34:59.969Z,4.18
2022-12-29T01:37:28.195Z,4.43
2022-12-29T01:39:55.323Z,3.84
2022-12-29T01:42:27.558Z,4.01
2022-12-29T01:44:59.472Z,3.84
2022-12-29T01:47:42.170Z,3.71
2022-12-29T01:50:19.283Z,3.69
2022-12-29T01:52:56.727Z,4.08
2022-12-29T01:55:24.763Z,4.23
2022-12-29T01:57:54.300Z,4.43
2022-12-29T02:00:21.351Z,3.98
2022-12-29T02:02:53.548Z,4.12
2022-12-29T02:05:30.329Z,4.08
2022-12-29T02:07:57.682Z,4.14
2022-12-29T02:10:28.023Z,4.65
2022-12-29T02:12:55.537Z,4.49
2022-12-29T02:15:45.811Z,4.42
2022-12-29T02:18:24.999Z,3.61
2022-12-29T02:21:19.833Z,4.01
2022-12-29T02:24:25.773Z,4.53
2022-12-29T02:27:46.683Z,4.05
2022-12-29T02:30:19.447Z,4.17
2022-12-29T02:33:01.251Z,4.33
2022-12-29T02:35:57.416Z,4.58
2022-12-29T02:38:51.765Z,4.89
2022-12-29T02:41:34.010Z,3.95
2022-12-29T02:44:05.447Z,4.15
2022-12-29T02:46:51.029Z,4.05
2022-12-29T02:49:28.935Z,4.38
2022-12-29T02:52:32.862Z,4.59
2022-12-29T02:55:00.594Z,4.28
2022-12-29T02:57:27.812Z,4.49
2022-12-29T02:59:59.763Z,4.53
2022-12-29T03:02:29.850Z,4.44
2022-12-29T03:05:24.274Z,4.15
2022-12-29T03:08:08.047Z,4.36
2022-12-29T03:10:57.111Z,4.62
2022-12-29T03:13:58.133Z,4.31
2022-12-29T03:16:48.357Z,4.77
2022-12-29T03:19:34.270Z,4.60
2022-12-29T03:22:28.583Z,4.61
2022-12-29T03:25:29.336Z,4.33
2022-12-29T03:28:12.681Z,4.96
2022-12-29T03:30:41.871Z,4.57
2022-12-29T03:33:16.048Z,4.68
2022-12-29T03:35:45.382Z,4.47
2022-12-29T03:38:29.021Z,4.60
2022-12-29T03:41:02.381Z,4.73
2022-12-29T03:43:30.768Z,4.57
2022-12-29T03:45:57.784Z,5.08
2022-12-29T03:48:25.689Z,3.93
2022-12-29T03:50:52.767Z,4.39
2022-12-29T03:53:19.722Z,4.69
2022-12-29T03:55:46.775Z,3.97
2022-12-29T03:58:13.939Z,4.20
2022-12-29T04:00:41.543Z,4.09
2022-12-29T04:03:08.644Z,3.57
2022-12-29T04:05:35.718Z,3.79
2022-12-29T04:08:02.883Z,4.30
2022-12-29T04:10:29.765Z,3.60
2022-12-29T04:12:56.750Z,3.73
2022-12-29T04:15:25.459Z,3.55
2022-12-29T04:17:52.413Z,3.63
2022-12-29T04:20:38.127Z,4.09
2022-12-29T04:23:07.615Z,3.87
2022-12-29T04:25:34.951Z,4.23
2022-12-29T04:28:01.956Z,4.61
2022-12-29T04:30:29.058Z,4.56
2022-12-29T04:32:56.020Z,4.85
2022-12-29T04:35:23.023Z,4.53
2022-12-29T04:37:49.983Z,4.68
2022-12-29T04:40:16.915Z,4.24
2022-12-29T04:42:43.885Z,4.25
2022-12-29T04:45:11.587Z,4.37
2022-12-29T04:47:38.720Z,4.24
2022-12-29T04:50:06.267Z,4.42
2022-12-29T04:52:33.247Z,4.03
2022-12-29T04:55:00.307Z,3.85
2022-12-29T04:57:28.162Z,4.00
2022-12-29T04:59:55.143Z,3.79
2022-12-29T05:02:22.766Z,3.73
2022-12-29T05:04:50.091Z,3.71
2022-12-29T05:07:17.060Z,4.12
2022-12-29T05:09:45.632Z,3.75
2022-12-29T05:12:12.572Z,3.38
2022-12-29T05:14:39.602Z,2.96
2022-12-29T05:17:06.530Z,3.10
2022-12-29T05:19:33.934Z,3.08
2022-12-29T05:22:00.855Z,3.23
2022-12-29T05:24:28.334Z,3.36
2022-12-29T05:26:55.221Z,3.53
2022-12-29T05:29:22.242Z,3.09
2022-12-29T05:31:49.185Z,3.63
2022-12-29T05:34:16.277Z,4.02
2022-12-29T05:36:43.179Z,4.25
2022-12-29T05:39:10.362Z,3.81
2022-12-29T05:41:37.506Z,4.00
2022-12-29T05:44:04.456Z,3.95
2022-12-29T05:46:31.504Z,4.10
2022-12-29T05:48:58.447Z,4.49
2022-12-29T05:51:25.725Z,4.11
2022-12-29T05:53:53.059Z,4.46
2022-12-29T05:56:21.286Z,4.46
2022-12-29T05:58:48.316Z,4.34
2022-12-29T06:01:15.364Z,4.93
2022-12-29T06:03:47.940Z,4.97
2022-12-29T06:06:15.637Z,5.03
2022-12-29T06:08:42.836Z,4.94
2022-12-29T06:11:10.219Z,5.07
2022-12-29T06:13:38.120Z,3.97
2022-12-29T06:16:06.192Z,4.19
2022-12-29T06:18:33.196Z,4.42
2022-12-29T06:21:04.977Z,4.37
2022-12-29T06:23:32.031Z,3.79
2022-12-29T06:25:58.939Z,3.38
2022-12-29T06:28:26.550Z,3.92
2022-12-29T06:30:53.555Z,3.74
2022-12-29T06:33:21.177Z,3.59
2022-12-29T06:35:48.370Z,3.46
2022-12-29T06:38:15.431Z,3.84
2022-12-29T06:40:44.367Z,3.99
2022-12-29T06:43:11.889Z,4.33
2022-12-29T06:45:41.645Z,4.38
2022-12-29T06:48:08.883Z,4.57
2022-12-29T06:50:41.082Z,4.49
2022-12-29T06:53:08.186Z,4.63
2022-12-29T06:55:36.467Z,4.14
2022-12-29T06:58:05.245Z,4.33
2022-12-29T07:00:34.449Z,4.26
2022-12-29T07:03:02.280Z,4.30
2022-12-29T07:05:33.728Z,4.63
2022-12-29T07:08:01.209Z,4.41
2022-12-29T07:10:28.536Z,4.26
2022-12-29T07:12:55.694Z,4.61
2022-12-29T07:15:22.814Z,5.27
2022-12-29T07:17:50.898Z,5.73
2022-12-29T07:20:23.200Z,6.35
2022-12-29T07:22:53.505Z,6.83
2022-12-29T07:25:20.447Z,7.02
2022-12-29T07:27:47.510Z,7.61
2022-12-29T07:30:14.735Z,8.07
2022-12-29T07:32:42.048Z,8.48
2022-12-29T07:35:09.842Z,8.48
2022-12-29T07:37:36.839Z,8.57
2022-12-29T07:40:05.213Z,7.42
2022-12-29T07:42:34.774Z,7.06
2022-12-29T07:45:02.757Z,6.16
2022-12-29T07:47:29.717Z,6.74
2022-12-29T07:49:56.621Z,6.10
2022-12-29T07:52:23.526Z,6.61
2022-12-29T07:54:50.558Z,6.35
2022-12-29T07:57:18.292Z,6.01
2022-12-29T07:59:45.338Z,6.25
2022-12-29T08:02:13.578Z,6.41
2022-12-29T08:04:40.662Z,6.34
2022-12-29T08:07:07.629Z,6.33
2022-12-29T08:09:34.639Z,5.92
2022-12-29T08:12:01.660Z,6.20
2022-12-29T08:14:28.719Z,5.96
2022-12-29T08:16:55.673Z,5.40
2022-12-29T08:19:22.589Z,5.46
2022-12-29T08:21:49.667Z,5.60
2022-12-29T08:24:16.704Z,5.48
2022-12-29T08:26:43.689Z,5.73
2022-12-29T08:29:10.736Z,5.77
2022-12-29T08:31:38.018Z,5.79
2022-12-29T08:34:05.349Z,6.02
2022-12-29T08:36:32.712Z,6.37
2022-12-29T08:38:59.817Z,6.05
2022-12-29T08:41:27.217Z,5.75
2022-12-29T08:43:54.289Z,5.92
2022-12-29T08:46:21.382Z,5.96
2022-12-29T08:48:48.789Z,6.07
2022-12-29T08:51:19.096Z,5.65
2022-12-29T08:53:48.695Z,5.87
2022-12-29T08:56:16.360Z,6.43
2022-12-29T08:58:52.448Z,6.62
2022-12-29T09:01:19.909Z,6.92
2022-12-29T09:06:40.238Z,7.04
2022-12-29T09:09:08.874Z,6.89
2022-12-29T09:11:36.091Z,6.91
2022-12-29T09:14:03.213Z,7.14
2022-12-29T09:16:30.559Z,7.16
2022-12-29T09:18:57.787Z,7.23
2022-12-29T09:21:24.798Z,7.22
2022-12-29T09:23:52.101Z,7.43
2022-12-29T09:26:19.016Z,7.55
2022-12-29T09:28:45.980Z,8.29
2022-12-29T09:31:13.528Z,7.89
2022-12-29T09:33:40.646Z,7.97
2022-12-29T09:36:08.468Z,8.19
2022-12-29T09:38:35.989Z,8.29
2022-12-29T09:41:28.088Z,8.52
2022-12-29T09:44:08.915Z,8.99
2022-12-29T09:46:47.504Z,8.14
2022-12-29T09:49:29.187Z,8.95
2022-12-29T09:52:02.751Z,8.70
2022-12-29T09:54:38.647Z,9.46
2022-12-29T09:57:13.856Z,9.04
2022-12-29T09:59:43.829Z,8.97
2022-12-29T10:02:34.509Z,8.23
2022-12-29T10:05:01.545Z,9.51
2022-12-29T10:07:54.596Z,10.48
2022-12-29T10:13:18.210Z,12.00
2022-12-29T10:16:00.123Z,11.90
2022-12-29T10:18:51.461Z,12.36
2022-12-29T10:21:51.890Z,10.42
2022-12-29T10:24:25.374Z,10.39
2022-12-29T10:26:53.382Z,11.71
2022-12-29T10:29:27.943Z,12.26
2022-12-29T10:31:58.161Z,12.20
2022-12-29T10:34:34.837Z,12.79
2022-12-29T10:37:07.351Z,13.07
2022-12-29T10:39:42.211Z,13.42
2022-12-29T10:42:21.567Z,13.94
2022-12-29T10:44:50.746Z,14.24
2022-12-29T10:47:27.699Z,14.53
2022-12-29T10:49:55.601Z,14.58
2022-12-29T10:52:24.959Z,14.90
2022-12-29T10:55:00.991Z,14.92
2022-12-29T10:57:34.097Z,14.94
2022-12-29T11:00:03.231Z,15.20
2022-12-29T11:02:51.874Z,15.50
2022-12-29T11:05:42.654Z,15.41
2022-12-29T11:08:19.122Z,15.47
2022-12-29T11:10:47.574Z,15.62
2022-12-29T11:13:30.916Z,15.49
2022-12-29T11:16:06.006Z,15.38
2022-12-29T11:18:43.842Z,15.53
2022-12-29T11:21:29.721Z,15.63
2022-12-29T11:24:06.331Z,15.75
2022-12-29T11:26:35.237Z,15.93
2022-12-29T11:29:10.066Z,16.22
2022-12-29T11:31:58.790Z,15.75
2022-12-29T11:34:36.955Z,15.69
2022-12-29T11:37:13.676Z,16.21
2022-12-29T11:40:06.006Z,15.79
2022-12-29T11:42:43.876Z,16.29
2022-12-29T11:45:36.481Z,15.94
2022-12-29T11:48:19.553Z,16.38
2022-12-29T11:50:53.247Z,16.56
2022-12-29T11:53:27.046Z,16.79
2022-12-29T11:56:02.262Z,16.88
2022-12-29T11:58:39.919Z,16.92
2022-12-29T12:01:36.230Z,17.14
2022-12-29T12:04:09.389Z,16.63
2022-12-29T12:06:47.432Z,17.07
2022-12-29T12:09:29.643Z,17.30
2022-12-29T12:11:57.985Z,17.05
2022-12-29T12:14:39.887Z,17.47
2022-12-29T12:17:22.336Z,17.67
2022-12-29T12:20:02.244Z,17.71
2022-12-29T12:22:39.663Z,17.78
2022-12-29T12:25:17.815Z,17.79
2022-12-29T12:28:30.492Z,17.69
2022-12-29T12:31:03.352Z,17.54
2022-12-29T12:33:42.727Z,17.44
2022-12-29T12:36:37.631Z,17.77
2022-12-29T12:39:20.876Z,17.68
2022-12-29T12:42:15.968Z,17.77
2022-12-29T12:44:49.437Z,17.85
2022-12-29T12:47:29.701Z,17.99
2022-12-29T12:50:26.307Z,18.20
2022-12-29T12:53:17.123Z,18.31
2022-12-29T12:55:52.715Z,18.49
2022-12-29T12:58:31.749Z,18.46
2022-12-29T13:01:11.566Z,18.51
2022-12-29T13:03:54.155Z,18.69
2022-12-29T13:06:33.350Z,18.59
2022-12-29T13:09:42.453Z,18.66
2022-12-29T13:12:36.949Z,18.75
2022-12-29T13:15:45.503Z,18.81
2022-12-29T13:18:43.259Z,18.54
2022-12-29T13:21:19.339Z,18.68
2022-12-29T13:23:46.223Z,18.69
2022-12-29T13:26:40.443Z,18.86
2022-12-29T13:29:29.244Z,18.74
2022-12-29T13:32:05.144Z,18.17
2022-12-29T13:34:43.545Z,18.30
2022-12-29T13:37:15.908Z,18.39
2022-12-29T13:39:49.256Z,18.77
2022-12-29T13:42:20.117Z,18.71
2022-12-29T13:44:54.015Z,18.72
2022-12-29T13:47:34.920Z,18.69
2022-12-29T13:50:05.006Z,18.71
2022-12-29T13:52:45.425Z,18.56
2022-12-29T13:55:44.314Z,18.70
2022-12-29T13:58:32.243Z,18.59
2022-12-29T14:01:09.723Z,18.55
2022-12-29T14:03:52.927Z,18.32
2022-12-29T14:06:20.056Z,18.46
2022-12-29T14:08:49.324Z,18.31
2022-12-29T14:11:24.131Z,18.27
2022-12-29T14:13:51.265Z,18.11
2022-12-29T14:16:31.717Z,17.84
2022-12-29T14:19:11.435Z,17.77
2022-12-29T14:21:39.099Z,17.70
2022-12-29T14:24:27.726Z,17.62
2022-12-29T14:26:54.923Z,17.51
2022-12-29T14:29:24.766Z,17.33
2022-12-29T14:31:53.327Z,17.24
2022-12-29T14:34:23.374Z,17.12
2022-12-29T14:37:03.562Z,16.95
2022-12-29T14:39:42.723Z,16.78
2022-12-29T14:42:13.672Z,16.82
2022-12-29T14:44:59.913Z,16.55
2022-12-29T14:47:35.127Z,16.39
2022-12-29T14:50:39.563Z,16.06
2022-12-29T14:53:07.990Z,15.33
2022-12-29T14:56:11.391Z,14.29
2022-12-29T14:58:53.275Z,14.39
2022-12-29T15:01:50.333Z,14.44
2022-12-29T15:04:26.377Z,13.67
2022-12-29T15:06:54.997Z,13.47
2022-12-29T15:09:39.201Z,13.65
2022-12-29T15:12:44.079Z,13.05
2022-12-29T15:15:23.792Z,12.99
2022-12-29T15:17:50.828Z,12.89
2022-12-29T15:20:17.899Z,12.77
2022-12-29T15:22:46.564Z,11.39
2022-12-29T15:25:17.424Z,12.04
2022-12-29T15:27:51.748Z,12.21
2022-12-29T15:30:20.084Z,12.14
2022-12-29T15:32:49.396Z,11.85
2022-12-29T15:35:38.596Z,12.20
2022-12-29T15:38:17.959Z,11.61
2022-12-29T15:40:46.216Z,11.67
2022-12-29T15:44:03.575Z,11.70
2022-12-29T15:46:34.288Z,11.09
2022-12-29T15:49:05.699Z,11.11
2022-12-29T15:51:38.609Z,11.07
2022-12-29T15:54:06.560Z,11.00
2022-12-29T15:56:34.488Z,10.94
2022-12-29T15:59:02.495Z,10.80
2022-12-29T16:01:33.004Z,10.90
2022-12-29T16:04:02.344Z,10.80
2022-12-29T16:06:46.024Z,9.53
2022-12-29T16:09:29.663Z,9.74
2022-12-29T16:12:01.045Z,9.31
2022-12-29T16:14:36.200Z,9.46
2022-12-29T16:17:07.943Z,9.54
2022-12-29T16:19:50.213Z,9.62
2022-12-29T16:22:28.855Z,9.68
2022-12-29T16:25:33.096Z,9.27
2022-12-29T16:28:02.009Z,9.39
2022-12-29T16:30:34.505Z,9.39
2022-12-29T16:33:06.725Z,9.16
2022-12-29T16:35:47.398Z,8.40
2022-12-29T16:38:18.042Z,8.82
2022-12-29T16:40:58.549Z,8.96
2022-12-29T16:43:34.518Z,9.05
2022-12-29T16:46:01.486Z,8.82
2022-12-29T16:48:34.010Z,8.34
2022-12-29T16:51:15.740Z,7.36
2022-12-29T16:53:50.636Z,7.56
2022-12-29T16:56:28.248Z,8.02
2022-12-29T16:59:09.028Z,7.08
2022-12-29T17:01:39.129Z,6.96
2022-12-29T17:04:10.008Z,7.73
2022-12-29T17:06:37.099Z,7.82
2022-12-29T17:09:06.565Z,7.92
2022-12-29T17:11:59.355Z,7.96
2022-12-29T17:14:50.764Z,8.04
2022-12-29T17:17:33.842Z,8.26
2022-12-29T17:20:24.724Z,8.24
2022-12-29T17:22:55.207Z,8.32
2022-12-29T17:25:28.694Z,8.36
2022-12-29T17:28:05.517Z,8.22
2022-12-29T17:30:36.443Z,8.04
2022-12-29T17:33:06.441Z,8.09
2022-12-29T17:35:33.475Z,7.27
2022-12-29T17:38:01.081Z,6.85
2022-12-29T17:40:32.490Z,7.58
2022-12-29T17:43:00.322Z,7.55
2022-12-29T17:45:32.410Z,6.93
2022-12-29T17:48:02.064Z,7.26
2022-12-29T17:50:31.366Z,7.19
2022-12-29T17:53:04.349Z,6.82
2022-12-29T17:55:37.612Z,6.32
2022-12-29T17:58:33.347Z,6.28
2022-12-29T18:01:02.650Z,5.90
2022-12-29T18:03:36.451Z,5.94
2022-12-29T18:06:06.865Z,5.39
2022-12-29T18:08:35.727Z,5.25
2022-12-29T18:11:02.926Z,5.77
2022-12-29T18:13:41.865Z,6.28
2022-12-29T18:16:12.900Z,5.66
2022-12-29T18:18:39.839Z,5.98
2022-12-29T18:21:07.253Z,5.77
2022-12-29T18:23:37.219Z,5.86
2022-12-29T18:26:28.061Z,6.03
2022-12-29T18:28:59.631Z,6.31
2022-12-29T18:31:29.139Z,6.51
2022-12-29T18:33:58.297Z,6.63
2022-12-29T18:36:26.097Z,6.87
2022-12-29T18:38:54.968Z,6.53
2022-12-29T18:41:30.032Z,6.49
2022-12-29T18:43:58.055Z,6.65
2022-12-29T18:46:25.043Z,6.60
2022-12-29T18:48:53.563Z,6.35
2022-12-29T18:51:23.091Z,6.59
2022-12-29T18:53:51.076Z,6.98
2022-12-29T18:56:18.193Z,7.26
2022-12-29T18:58:45.196Z,6.99
2022-12-29T19:01:28.348Z,6.46
2022-12-29T19:03:55.660Z,6.54
2022-12-29T19:06:23.246Z,5.66
2022-12-29T19:08:50.249Z,6.03
2022-12-29T19:11:18.031Z,6.49
2022-12-29T19:13:45.153Z,6.53
2022-12-29T19:16:21.235Z,6.66
2022-12-29T19:19:08.841Z,6.80
2022-12-29T19:21:37.343Z,6.96
2022-12-29T19:24:04.623Z,6.49
2022-12-29T19:26:36.278Z,6.34
2022-12-29T19:29:04.505Z,6.20
2022-12-29T19:31:31.720Z,5.79
2022-12-29T19:34:01.184Z,6.21
2022-12-29T19:36:29.489Z,6.62
2022-12-29T19:38:56.540Z,6.29
2022-12-29T19:41:24.081Z,6.57
2022-12-29T19:43:51.270Z,6.27
2022-12-29T19:46:19.706Z,6.10
2022-12-29T19:48:49.338Z,6.28
2022-12-29T19:51:17.521Z,6.47
2022-12-29T19:53:46.268Z,6.56
2022-12-29T19:56:13.977Z,6.60
2022-12-29T19:58:46.600Z,6.52
2022-12-29T20:01:20.938Z,6.23
2022-12-29T20:03:49.358Z,5.99
2022-12-29T20:06:16.868Z,6.25
2022-12-29T20:08:44.114Z,6.29
2022-12-29T20:11:17.454Z,6.29
2022-12-29T20:13:45.047Z,6.18
2022-12-29T20:16:15.000Z,6.22
2022-12-29T20:18:42.629Z,6.28
2022-12-29T20:21:16.792Z,6.27
2022-12-29T20:23:45.386Z,6.10
2022-12-29T20:26:22.340Z,5.61
2022-12-29T20:28:50.590Z,5.52
2022-12-29T20:31:23.654Z,5.63
2022-12-29T20:33:51.083Z,5.80
2022-12-29T20:36:22.472Z,5.81
2022-12-29T20:38:50.121Z,5.99
2022-12-29T20:41:18.019Z,5.72
2022-12-29T20:43:45.600Z,5.81
2022-12-29T20:46:19.563Z,5.65
2022-12-29T20:48:48.925Z,5.55
2022-12-29T20:51:15.971Z,5.31
2022-12-29T20:53:42.940Z,5.29
2022-12-29T20:56:19.369Z,4.59
2022-12-29T20:59:17.626Z,5.15
2022-12-29T21:01:34.005Z,5.23
2022-12-29T21:04:01.160Z,5.10
2022-12-29T21:06:28.232Z,4.20
2022-12-29T21:08:55.526Z,4.53
2022-12-29T21:11:22.825Z,5.13
2022-12-29T21:13:50.205Z,5.07
2022-12-29T21:16:21.427Z,4.92
2022-12-29T21:18:51.934Z,4.96
2022-12-29T21:21:26.346Z,4.77
2022-12-29T21:23:55.114Z,5.19
2022-12-29T21:26:24.400Z,5.13
2022-12-29T21:28:51.493Z,4.62
2022-12-29T21:31:30.878Z,4.22
2022-12-29T21:33:58.523Z,5.00
2022-12-29T21:36:25.910Z,4.97
2022-12-29T21:38:53.212Z,5.13
2022-12-29T21:41:20.687Z,4.79
2022-12-29T21:44:07.174Z,4.85
2022-12-29T21:46:35.881Z,5.63
2022-12-29T21:49:04.691Z,4.38
2022-12-29T21:51:50.453Z,4.32
2022-12-29T21:54:41.181Z,5.18
2022-12-29T21:57:08.357Z,5.24
2022-12-29T21:59:57.031Z,5.10
2022-12-29T22:02:45.389Z,5.10
2022-12-29T22:05:33.400Z,5.66
2022-12-29T22:08:21.045Z,5.77
2022-12-29T22:11:07.497Z,5.54
2022-12-29T22:13:39.577Z,5.94
2022-12-29T22:16:09.690Z,6.02
2022-12-29T22:18:37.615Z,5.72
2022-12-29T22:21:06.323Z,5.83
2022-12-29T22:23:33.380Z,6.04
2022-12-29T22:26:08.659Z,5.91
2022-12-29T22:28:40.148Z,5.67
2022-12-29T22:31:25.401Z,5.37
2022-12-29T22:34:11.351Z,5.83
2022-12-29T22:36:39.386Z,5.22
2022-12-29T22:39:06.278Z,5.28
2022-12-29T22:41:33.319Z,5.82
2022-12-29T22:44:00.406Z,5.05
2022-12-29T22:46:28.121Z,5.50
2022-12-29T22:48:57.130Z,5.53
2022-12-29T22:51:26.498Z,5.74
2022-12-29T22:53:53.710Z,5.90
2022-12-29T22:56:24.819Z,5.40
2022-12-29T22:58:51.836Z,4.87
2022-12-29T23:01:22.787Z,5.42
2022-12-29T23:03:50.132Z,5.63
2022-12-29T23:06:17.819Z,5.66
2022-12-29T23:08:45.323Z,5.58
2022-12-29T23:11:13.390Z,5.61
2022-12-29T23:13:41.450Z,5.74
2022-12-29T23:16:08.882Z,5.72
2022-12-29T23:18:36.336Z,5.80
2022-12-29T23:21:03.513Z,5.89
2022-12-29T23:23:49.899Z,5.67
2022-12-29T23:26:21.005Z,5.76
2022-12-29T23:28:48.943Z,5.85
2022-12-29T23:31:16.831Z,5.84
2022-12-29T23:33:44.279Z,5.90
2022-12-29T23:36:12.515Z,5.75
2022-12-29T23:38:39.569Z,5.82
2022-12-29T23:41:06.833Z,5.67
2022-12-29T23:43:34.244Z,5.82
2022-12-29T23:46:18.838Z,5.36
2022-12-29T23:48:46.333Z,5.60
2022-12-29T23:51:13.726Z,5.33
2022-12-29T23:53:42.416Z,5.39
2022-12-29T23:56:13.626Z,5.56
2022-12-29T23:58:40.535Z,5.58
